createdAt,value
2023-07-30T00:00:50.387Z,4.50
2023-07-30T00:03:17.231Z,4.27
2023-07-30T00:05:43.811Z,4.72
2023-07-30T00:08:10.325Z,4.97
2023-07-30T00:10:37.620Z,4.93
2023-07-30T00:13:04.150Z,5.03
2023-07-30T00:15:30.693Z,4.73
2023-07-30T00:17:57.336Z,5.22
2023-07-30T00:20:24.027Z,5.10
2023-07-30T00:22:50.583Z,4.80
2023-07-30T00:25:17.070Z,4.25
2023-07-30T00:27:43.620Z,5.73
2023-07-30T00:30:10.959Z,4.15
2023-07-30T00:32:43.250Z,4.85
2023-07-30T00:35:11.797Z,4.55
2023-07-30T00:37:38.321Z,5.03
2023-07-30T00:40:05.299Z,4.63
2023-07-30T00:42:31.811Z,4.97
2023-07-30T00:44:58.296Z,4.60
2023-07-30T00:47:25.042Z,4.75
2023-07-30T00:49:51.817Z,5.15
2023-07-30T00:52:21.130Z,4.57
2023-07-30T00:54:49.257Z,4.10
2023-07-30T00:57:18.040Z,4.63
2023-07-30T00:59:44.616Z,4.78
2023-07-30T01:02:11.305Z,5.15
2023-07-30T01:04:41.594Z,5.03
2023-07-30T01:07:08.227Z,5.15
2023-07-30T01:09:35.557Z,4.53
2023-07-30T01:12:03.761Z,4.72
2023-07-30T01:14:31.842Z,5.45
2023-07-30T01:16:58.720Z,4.60
2023-07-30T01:19:25.290Z,5.20
2023-07-30T01:21:51.769Z,4.85
2023-07-30T01:24:18.291Z,5.25
2023-07-30T01:26:47.448Z,5.03
2023-07-30T01:29:23.391Z,4.60
2023-07-30T01:32:11.633Z,5.03
2023-07-30T01:34:40.380Z,5.25
2023-07-30T01:37:11.220Z,4.97
2023-07-30T01:39:39.497Z,5.03
2023-07-30T01:42:06.468Z,4.97
2023-07-30T01:44:33.002Z,5.65
2023-07-30T01:46:59.487Z,5.00
2023-07-30T01:49:26.202Z,4.88
2023-07-30T01:51:52.728Z,4.72
2023-07-30T01:54:19.240Z,4.30
2023-07-30T01:56:45.734Z,5.70
2023-07-30T01:59:12.221Z,4.63
2023-07-30T02:01:38.907Z,5.00
2023-07-30T02:04:05.507Z,4.50
2023-07-30T02:06:32.020Z,4.67
2023-07-30T02:08:58.508Z,4.50
2023-07-30T02:11:25.063Z,4.60
2023-07-30T02:13:51.538Z,5.35
2023-07-30T02:16:18.097Z,4.07
2023-07-30T02:18:45.191Z,5.17
2023-07-30T02:21:11.722Z,5.38
2023-07-30T02:23:38.207Z,5.50
2023-07-30T02:26:04.711Z,4.75
2023-07-30T02:28:31.330Z,4.70
2023-07-30T02:30:57.832Z,4.50
2023-07-30T02:33:24.283Z,4.88
2023-07-30T02:35:50.812Z,4.97
2023-07-30T02:38:17.399Z,4.80
2023-07-30T02:40:44.091Z,4.80
2023-07-30T02:43:10.671Z,4.93
2023-07-30T02:45:38.834Z,4.57
2023-07-30T02:48:05.716Z,4.93
2023-07-30T02:50:32.295Z,5.15
2023-07-30T02:52:58.777Z,6.20
2023-07-30T02:55:25.241Z,5.50
2023-07-30T02:57:52.065Z,5.65
2023-07-30T03:00:18.799Z,5.88
2023-07-30T03:02:45.695Z,5.07
2023-07-30T03:05:12.354Z,5.40
2023-07-30T03:07:39.015Z,5.60
2023-07-30T03:10:05.917Z,5.45
2023-07-30T03:12:32.419Z,5.57
2023-07-30T03:14:58.929Z,5.68
2023-07-30T03:17:26.579Z,5.80
2023-07-30T03:19:53.095Z,6.37
2023-07-30T03:22:19.615Z,5.95
2023-07-30T03:24:48.805Z,5.65
2023-07-30T03:27:15.331Z,6.00
2023-07-30T03:29:42.359Z,8.15
2023-07-30T03:32:09.034Z,7.03
2023-07-30T03:34:35.520Z,6.38
2023-07-30T03:37:02.035Z,6.72
2023-07-30T03:39:28.741Z,7.65
2023-07-30T03:41:55.328Z,7.60
2023-07-30T03:44:21.905Z,7.00
2023-07-30T03:46:48.476Z,6.75
2023-07-30T03:49:15.129Z,6.55
2023-07-30T03:51:41.742Z,7.07
2023-07-30T03:54:08.224Z,6.70
2023-07-30T03:56:34.715Z,8.80
2023-07-30T03:59:01.218Z,7.45
2023-07-30T04:01:28.785Z,7.82
2023-07-30T04:03:55.387Z,7.63
2023-07-30T04:06:21.870Z,9.13
2023-07-30T04:08:48.387Z,7.93
2023-07-30T04:11:14.888Z,7.63
2023-07-30T04:13:42.108Z,9.50
2023-07-30T04:16:08.726Z,8.40
2023-07-30T04:18:35.276Z,9.00
2023-07-30T04:21:01.805Z,9.87
2023-07-30T04:23:28.320Z,8.68
2023-07-30T04:25:54.847Z,9.02
2023-07-30T04:28:21.440Z,8.85
2023-07-30T04:30:48.272Z,9.10
2023-07-30T04:33:15.753Z,10.90
2023-07-30T04:35:42.416Z,8.95
2023-07-30T04:38:08.970Z,9.88
2023-07-30T04:40:35.480Z,10.20
2023-07-30T04:43:02.131Z,10.18
2023-07-30T04:45:28.781Z,10.43
2023-07-30T04:47:55.495Z,10.93
2023-07-30T04:50:22.028Z,10.40
2023-07-30T04:52:48.541Z,9.73
2023-07-30T04:55:15.156Z,10.00
2023-07-30T04:57:41.682Z,11.10
2023-07-30T05:00:08.744Z,10.65
2023-07-30T05:02:35.280Z,10.55
2023-07-30T05:05:01.842Z,8.93
2023-07-30T05:07:28.339Z,8.40
2023-07-30T05:09:54.941Z,7.77
2023-07-30T05:12:21.447Z,9.07
2023-07-30T05:14:47.947Z,8.82
2023-07-30T05:17:14.459Z,8.65
2023-07-30T05:19:40.981Z,8.50
2023-07-30T05:22:08.819Z,9.33
2023-07-30T05:24:37.872Z,8.32
2023-07-30T05:27:04.798Z,8.85
2023-07-30T05:29:31.978Z,9.63
2023-07-30T05:31:58.540Z,8.40
2023-07-30T05:34:25.078Z,8.17
2023-07-30T05:36:51.779Z,7.80
2023-07-30T05:39:18.238Z,9.93
2023-07-30T05:41:44.759Z,10.18
2023-07-30T05:44:11.237Z,10.48
2023-07-30T05:46:37.765Z,9.67
2023-07-30T05:49:04.254Z,10.77
2023-07-30T05:51:30.804Z,10.80
2023-07-30T05:53:57.393Z,11.90
2023-07-30T05:56:23.979Z,11.80
2023-07-30T05:58:50.599Z,9.93
2023-07-30T06:01:17.215Z,11.30
2023-07-30T06:03:43.948Z,10.73
2023-07-30T06:06:10.496Z,10.20
2023-07-30T06:08:36.973Z,11.00
2023-07-30T06:11:07.176Z,11.63
2023-07-30T06:13:33.692Z,10.77
2023-07-30T06:16:00.403Z,10.65
2023-07-30T06:18:27.111Z,9.90
2023-07-30T06:20:53.687Z,10.57
2023-07-30T06:23:20.153Z,10.27
2023-07-30T06:25:46.692Z,8.88
2023-07-30T06:28:13.254Z,10.80
2023-07-30T06:30:40.654Z,10.30
2023-07-30T06:33:07.201Z,10.60
2023-07-30T06:35:33.810Z,9.03
2023-07-30T06:38:00.351Z,10.30
2023-07-30T06:40:26.876Z,10.70
2023-07-30T06:42:53.614Z,11.13
2023-07-30T06:45:20.207Z,10.82
2023-07-30T06:47:46.734Z,10.40
2023-07-30T06:50:13.295Z,10.13
2023-07-30T06:52:39.855Z,9.75
2023-07-30T06:55:06.632Z,9.18
2023-07-30T06:57:33.164Z,7.85
2023-07-30T06:59:59.756Z,8.23
2023-07-30T07:02:26.369Z,8.60
2023-07-30T07:04:53.138Z,9.85
2023-07-30T07:07:19.709Z,8.70
2023-07-30T07:09:46.287Z,8.13
2023-07-30T07:12:12.998Z,7.90
2023-07-30T07:14:40.426Z,7.53
2023-07-30T07:17:07.048Z,7.45
2023-07-30T07:19:37.489Z,8.38
2023-07-30T07:22:07.124Z,5.88
2023-07-30T07:24:33.719Z,7.53
2023-07-30T07:27:00.212Z,7.78
2023-07-30T07:29:26.711Z,6.32
2023-07-30T07:31:54.404Z,5.53
2023-07-30T07:34:21.149Z,6.13
2023-07-30T07:36:47.698Z,6.97
2023-07-30T07:39:14.305Z,6.03
2023-07-30T07:41:40.831Z,6.43
2023-07-30T07:44:07.410Z,5.72
2023-07-30T07:46:33.957Z,5.72
2023-07-30T07:49:00.946Z,7.17
2023-07-30T07:51:27.439Z,6.03
2023-07-30T07:53:53.999Z,5.43
2023-07-30T07:56:20.663Z,5.82
2023-07-30T07:58:47.224Z,6.22
2023-07-30T08:01:13.852Z,5.83
2023-07-30T08:03:40.542Z,7.43
2023-07-30T08:06:07.612Z,6.57
2023-07-30T08:08:34.104Z,6.95
2023-07-30T08:11:06.809Z,6.72
2023-07-30T08:13:33.406Z,6.13
2023-07-30T08:16:00.193Z,6.35
2023-07-30T08:18:28.685Z,6.43
2023-07-30T08:20:55.443Z,7.55
2023-07-30T08:23:21.964Z,7.13
2023-07-30T08:25:49.701Z,6.37
2023-07-30T08:28:16.337Z,6.38
2023-07-30T08:30:42.854Z,5.80
2023-07-30T08:33:09.415Z,5.80
2023-07-30T08:35:36.047Z,6.68
2023-07-30T08:38:02.756Z,6.13
2023-07-30T08:40:29.368Z,6.57
2023-07-30T08:42:55.916Z,5.97
2023-07-30T08:45:22.477Z,6.05
2023-07-30T08:47:49.142Z,5.70
2023-07-30T08:50:16.133Z,4.87
2023-07-30T08:52:43.745Z,5.72
2023-07-30T08:55:11.403Z,3.38
2023-07-30T08:57:39.612Z,4.53
2023-07-30T09:00:11.320Z,5.30
2023-07-30T09:02:46.141Z,4.80
2023-07-30T09:05:12.930Z,3.40
2023-07-30T09:07:39.462Z,5.20
2023-07-30T09:10:06.773Z,5.60
2023-07-30T09:12:34.443Z,4.72
2023-07-30T09:15:02.817Z,5.20
2023-07-30T09:17:29.406Z,5.18
2023-07-30T09:19:55.971Z,4.50
2023-07-30T09:22:29.501Z,5.10
2023-07-30T09:24:57.600Z,3.50
2023-07-30T09:27:28.994Z,4.47
2023-07-30T09:29:57.676Z,4.50
2023-07-30T09:32:32.236Z,2.85
2023-07-30T09:35:12.163Z,3.42
2023-07-30T09:37:42.720Z,3.20
2023-07-30T09:40:11.588Z,3.17
2023-07-30T09:42:41.197Z,3.17
2023-07-30T09:45:09.330Z,2.97
2023-07-30T09:47:38.562Z,2.60
2023-07-30T09:50:05.703Z,2.95
2023-07-30T09:52:32.639Z,3.10
2023-07-30T09:54:59.913Z,3.15
2023-07-30T09:57:26.568Z,2.78
2023-07-30T09:59:54.705Z,2.75
2023-07-30T10:02:22.702Z,3.65
2023-07-30T10:04:51.933Z,2.90
2023-07-30T10:07:23.133Z,2.90
2023-07-30T10:09:52.535Z,3.20
2023-07-30T10:12:24.554Z,4.28
2023-07-30T10:14:51.468Z,2.60
2023-07-30T10:17:18.789Z,2.63
2023-07-30T10:19:50.162Z,2.85
2023-07-30T10:22:19.405Z,2.58
2023-07-30T10:25:05.146Z,2.53
2023-07-30T10:27:41.821Z,2.50
2023-07-30T10:30:15.678Z,2.60
2023-07-30T10:33:01.629Z,2.53
2023-07-30T10:35:40.491Z,2.30
2023-07-30T10:38:17.554Z,2.58
2023-07-30T10:41:11.430Z,2.15
2023-07-30T10:43:43.418Z,1.83
2023-07-30T10:46:12.392Z,2.83
2023-07-30T10:48:44.281Z,2.60
2023-07-30T10:51:14.077Z,1.92
2023-07-30T10:53:44.108Z,2.10
2023-07-30T10:56:11.244Z,2.10
2023-07-30T10:58:39.155Z,2.45
2023-07-30T11:01:07.461Z,2.42
2023-07-30T11:03:35.776Z,2.40
2023-07-30T11:06:03.971Z,2.40
2023-07-30T11:08:37.771Z,2.43
2023-07-30T11:11:05.543Z,2.15
2023-07-30T11:13:43.411Z,2.03
2023-07-30T11:16:11.135Z,1.45
2023-07-30T11:18:39.610Z,1.75
2023-07-30T11:21:11.462Z,2.30
2023-07-30T11:23:40.009Z,1.88
2023-07-30T11:26:08.164Z,1.40
2023-07-30T11:28:39.231Z,2.00
2023-07-30T11:31:08.370Z,1.20
2023-07-30T11:33:39.845Z,1.70
2023-07-30T11:36:10.237Z,1.70
2023-07-30T11:38:39.160Z,1.88
2023-07-30T11:41:07.485Z,1.50
2023-07-30T11:43:34.140Z,1.70
2023-07-30T11:46:14.642Z,2.13
2023-07-30T11:48:43.514Z,1.80
2023-07-30T11:51:28.181Z,1.58
2023-07-30T11:54:00.363Z,2.00
2023-07-30T11:56:29.182Z,1.67
2023-07-30T11:59:01.780Z,1.40
2023-07-30T12:01:32.539Z,1.67
2023-07-30T12:04:00.913Z,1.92
2023-07-30T12:06:50.778Z,1.90
2023-07-30T12:09:27.541Z,2.15
2023-07-30T12:12:01.626Z,1.80
2023-07-30T12:14:50.042Z,1.80
2023-07-30T12:17:16.642Z,1.52
2023-07-30T12:19:43.603Z,1.55
2023-07-30T12:22:10.438Z,1.33
2023-07-30T12:24:37.232Z,1.60
2023-07-30T12:27:04.121Z,1.80
2023-07-30T12:29:30.722Z,2.10
2023-07-30T12:31:57.855Z,1.80
2023-07-30T12:34:25.419Z,3.17
2023-07-30T12:36:52.026Z,2.07
2023-07-30T12:39:18.757Z,1.95
2023-07-30T12:41:45.419Z,1.70
2023-07-30T12:44:11.968Z,1.60
2023-07-30T12:46:38.559Z,1.20
2023-07-30T12:49:05.921Z,1.53
2023-07-30T12:51:33.891Z,1.70
2023-07-30T12:54:00.904Z,1.60
2023-07-30T12:56:27.574Z,1.88
2023-07-30T12:58:54.495Z,1.73
2023-07-30T13:01:21.100Z,1.10
2023-07-30T13:03:48.497Z,0.90
2023-07-30T13:06:15.088Z,1.10
2023-07-30T13:08:41.622Z,1.00
2023-07-30T13:11:08.562Z,1.33
2023-07-30T13:13:35.114Z,0.97
2023-07-30T13:16:02.836Z,1.00
2023-07-30T13:18:30.404Z,0.90
2023-07-30T13:20:56.963Z,1.05
2023-07-30T13:23:26.344Z,0.95
2023-07-30T13:25:53.005Z,1.73
2023-07-30T13:28:19.569Z,0.90
2023-07-30T13:30:46.177Z,1.40
2023-07-30T13:33:12.717Z,1.67
2023-07-30T13:35:39.451Z,1.40
2023-07-30T13:38:05.943Z,1.43
2023-07-30T13:40:32.498Z,1.38
2023-07-30T13:42:58.982Z,1.83
2023-07-30T13:45:25.571Z,1.75
2023-07-30T13:47:52.389Z,1.33
2023-07-30T13:50:19.063Z,1.20
2023-07-30T13:52:45.762Z,1.20
2023-07-30T13:55:12.322Z,1.20
2023-07-30T13:57:38.808Z,1.50
2023-07-30T14:00:07.279Z,1.83
2023-07-30T14:02:34.095Z,1.60
2023-07-30T14:05:00.674Z,1.85
2023-07-30T14:07:27.149Z,1.83
2023-07-30T14:09:53.606Z,2.22
2023-07-30T14:12:20.103Z,2.30
2023-07-30T14:14:46.593Z,2.97
2023-07-30T14:19:43.127Z,3.25
2023-07-30T14:22:09.685Z,4.20
2023-07-30T14:24:38.517Z,6.28
2023-07-30T14:27:06.154Z,5.63
2023-07-30T14:29:32.739Z,9.40
2023-07-30T14:31:59.510Z,11.63
2023-07-30T14:34:26.043Z,9.68
2023-07-30T14:36:52.552Z,9.98
2023-07-30T14:39:19.239Z,9.73
2023-07-30T14:41:45.901Z,7.10
2023-07-30T14:44:12.415Z,6.32
2023-07-30T14:46:38.971Z,6.95
2023-07-30T14:49:05.532Z,5.55
2023-07-30T14:51:32.071Z,7.40
2023-07-30T14:53:58.684Z,4.78
2023-07-30T14:56:25.256Z,4.32
2023-07-30T14:58:51.763Z,3.50
2023-07-30T15:01:18.300Z,3.13
2023-07-30T15:03:44.896Z,3.23
2023-07-30T15:06:11.491Z,4.60
2023-07-30T15:08:38.058Z,4.55
2023-07-30T15:11:04.564Z,3.83
2023-07-30T15:13:31.116Z,3.83
2023-07-30T15:15:57.707Z,3.10
2023-07-30T15:18:24.289Z,2.33
2023-07-30T15:20:50.926Z,2.35
2023-07-30T15:23:17.758Z,2.70
2023-07-30T15:25:44.402Z,2.10
2023-07-30T15:28:11.033Z,2.20
2023-07-30T15:30:39.574Z,1.95
2023-07-30T15:33:09.514Z,1.70
2023-07-30T15:35:36.138Z,2.05
2023-07-30T15:38:05.649Z,2.22
2023-07-30T15:40:32.188Z,2.40
2023-07-30T15:42:59.290Z,1.80
2023-07-30T15:45:25.986Z,2.67
2023-07-30T15:47:55.104Z,2.35
2023-07-30T15:50:25.044Z,3.03
2023-07-30T15:52:51.542Z,3.50
2023-07-30T15:55:18.135Z,2.80
2023-07-30T15:57:44.919Z,3.78
2023-07-30T16:00:13.721Z,2.88
2023-07-30T16:02:40.601Z,3.55
2023-07-30T16:05:07.470Z,2.57
2023-07-30T16:07:33.993Z,2.50
2023-07-30T16:10:00.717Z,3.45
2023-07-30T16:12:27.618Z,3.03
2023-07-30T16:14:54.924Z,3.42
2023-07-30T16:17:21.455Z,3.20
2023-07-30T16:19:48.075Z,2.85
2023-07-30T16:22:14.595Z,2.78
2023-07-30T16:24:41.098Z,3.47
2023-07-30T16:27:07.861Z,2.90
2023-07-30T16:29:34.370Z,2.93
2023-07-30T16:32:00.877Z,3.10
2023-07-30T16:34:27.488Z,2.85
2023-07-30T16:36:53.992Z,2.88
2023-07-30T16:39:20.492Z,2.85
2023-07-30T16:41:47.020Z,2.77
2023-07-30T16:44:13.538Z,3.20
2023-07-30T16:46:40.241Z,4.80
2023-07-30T16:49:08.770Z,3.28
2023-07-30T16:51:36.422Z,2.80
2023-07-30T16:54:02.953Z,4.33
2023-07-30T16:56:29.462Z,4.15
2023-07-30T16:58:55.955Z,3.65
2023-07-30T17:01:23.121Z,3.40
2023-07-30T17:03:49.864Z,3.22
2023-07-30T17:06:17.433Z,2.97
2023-07-30T17:08:44.021Z,3.33
2023-07-30T17:11:10.680Z,3.88
2023-07-30T17:13:37.279Z,3.45
2023-07-30T17:16:11.249Z,3.25
2023-07-30T17:18:38.374Z,3.63
2023-07-30T17:21:05.463Z,3.17
2023-07-30T17:23:32.119Z,3.42
2023-07-30T17:26:02.835Z,3.17
2023-07-30T17:28:30.051Z,3.53
2023-07-30T17:30:57.324Z,3.27
2023-07-30T17:33:24.338Z,3.53
2023-07-30T17:35:51.085Z,3.00
2023-07-30T17:38:17.907Z,3.13
2023-07-30T17:40:54.703Z,2.80
2023-07-30T17:43:22.425Z,2.63
2023-07-30T17:45:49.752Z,2.50
2023-07-30T17:48:17.127Z,2.47
2023-07-30T17:50:43.714Z,2.08
2023-07-30T17:53:10.276Z,2.58
2023-07-30T17:55:41.761Z,2.20
2023-07-30T17:58:08.313Z,3.05
2023-07-30T18:00:34.893Z,2.85
2023-07-30T18:03:01.604Z,2.42
2023-07-30T18:05:37.701Z,2.47
2023-07-30T18:08:12.182Z,2.53
2023-07-30T18:10:38.729Z,3.50
2023-07-30T18:13:05.964Z,2.55
2023-07-30T18:15:32.451Z,2.25
2023-07-30T18:17:59.055Z,2.65
2023-07-30T18:20:26.111Z,2.63
2023-07-30T18:22:52.661Z,2.95
2023-07-30T18:25:19.220Z,2.90
2023-07-30T18:27:45.715Z,3.08
2023-07-30T18:30:12.287Z,3.33
2023-07-30T18:32:38.956Z,3.50
2023-07-30T18:35:06.071Z,3.20
2023-07-30T18:37:33.419Z,3.30
2023-07-30T18:40:00.597Z,3.58
2023-07-30T18:42:27.153Z,3.60
2023-07-30T18:44:55.159Z,4.00
2023-07-30T18:47:24.341Z,3.97
2023-07-30T18:49:52.280Z,4.47
2023-07-30T18:52:19.236Z,4.10
2023-07-30T18:54:45.964Z,4.47
2023-07-30T18:57:13.233Z,5.03
2023-07-30T18:59:40.064Z,4.82
2023-07-30T19:02:08.113Z,5.80
2023-07-30T19:04:34.927Z,5.03
2023-07-30T19:07:01.577Z,5.18
2023-07-30T19:09:28.121Z,5.13
2023-07-30T19:11:54.653Z,5.43
2023-07-30T19:14:21.259Z,4.88
2023-07-30T19:16:47.771Z,4.30
2023-07-30T19:19:14.401Z,5.95
2023-07-30T19:21:41.017Z,5.23
2023-07-30T19:24:07.617Z,5.15
2023-07-30T19:26:34.294Z,4.93
2023-07-30T19:29:00.845Z,5.53
2023-07-30T19:31:27.418Z,6.03
2023-07-30T19:33:53.924Z,5.70
2023-07-30T19:36:20.496Z,5.00
2023-07-30T19:38:47.095Z,6.25
2023-07-30T19:41:26.934Z,5.63
2023-07-30T19:43:54.169Z,5.90
2023-07-30T19:46:20.735Z,5.37
2023-07-30T19:48:47.684Z,5.60
2023-07-30T19:51:14.800Z,4.95
2023-07-30T19:53:41.272Z,5.93
2023-07-30T19:56:10.033Z,5.15
2023-07-30T19:58:36.793Z,5.13
2023-07-30T20:01:03.676Z,4.57
2023-07-30T20:03:31.374Z,5.05
2023-07-30T20:06:02.669Z,5.28
2023-07-30T20:08:29.934Z,4.43
2023-07-30T20:10:57.625Z,5.10
2023-07-30T20:13:24.866Z,4.20
2023-07-30T20:15:52.518Z,4.72
2023-07-30T20:18:19.279Z,4.20
2023-07-30T20:20:45.820Z,4.75
2023-07-30T20:23:12.560Z,4.77
2023-07-30T20:25:39.970Z,3.45
2023-07-30T20:28:07.781Z,4.20
2023-07-30T20:30:36.530Z,4.47
2023-07-30T20:33:03.623Z,3.88
2023-07-30T20:35:30.330Z,4.03
2023-07-30T20:38:00.576Z,3.72
2023-07-30T20:40:28.453Z,3.75
2023-07-30T20:42:55.518Z,4.20
2023-07-30T20:45:22.985Z,3.60
2023-07-30T20:47:50.974Z,4.20
2023-07-30T20:50:17.929Z,4.35
2023-07-30T20:52:45.596Z,4.53
2023-07-30T20:55:13.430Z,3.97
2023-07-30T20:57:41.204Z,4.40
2023-07-30T21:00:08.959Z,4.40
2023-07-30T21:02:36.516Z,4.35
2023-07-30T21:05:03.334Z,4.18
2023-07-30T21:07:29.880Z,4.25
2023-07-30T21:09:56.440Z,4.40
2023-07-30T21:12:23.321Z,3.83
2023-07-30T21:14:50.016Z,4.25
2023-07-30T21:17:18.551Z,4.65
2023-07-30T21:19:45.937Z,3.67
2023-07-30T21:22:12.962Z,3.38
2023-07-30T21:24:39.493Z,3.57
2023-07-30T21:27:06.282Z,4.15
2023-07-30T21:29:33.034Z,4.10
2023-07-30T21:31:59.698Z,3.67
2023-07-30T21:34:26.324Z,4.00
2023-07-30T21:36:52.806Z,4.27
2023-07-30T21:39:19.386Z,4.07
2023-07-30T21:41:45.862Z,4.82
2023-07-30T21:44:12.368Z,3.97
2023-07-30T21:46:39.195Z,4.25
2023-07-30T21:49:06.059Z,4.13
2023-07-30T21:51:32.553Z,4.20
2023-07-30T21:53:59.228Z,4.80
2023-07-30T21:56:25.746Z,4.57
2023-07-30T21:58:52.268Z,4.40
2023-07-30T22:01:18.844Z,3.93
2023-07-30T22:03:45.401Z,3.10
2023-07-30T22:06:11.899Z,4.00
2023-07-30T22:08:38.430Z,4.20
2023-07-30T22:11:05.104Z,4.45
2023-07-30T22:13:31.631Z,3.80
2023-07-30T22:15:58.128Z,3.95
2023-07-30T22:18:24.674Z,3.85
2023-07-30T22:20:51.195Z,3.72
2023-07-30T22:23:17.721Z,3.80
2023-07-30T22:25:44.227Z,3.93
2023-07-30T22:28:10.914Z,3.63
2023-07-30T22:30:41.369Z,4.43
2023-07-30T22:33:08.441Z,3.85
2023-07-30T22:35:35.096Z,4.25
2023-07-30T22:38:01.701Z,4.27
2023-07-30T22:40:28.698Z,3.95
2023-07-30T22:42:55.187Z,4.50
2023-07-30T22:45:21.998Z,4.22
2023-07-30T22:47:49.224Z,4.93
2023-07-30T22:50:15.906Z,4.83
2023-07-30T22:52:42.512Z,3.97
2023-07-30T22:55:09.211Z,4.95
2023-07-30T22:57:36.216Z,4.28
2023-07-30T23:00:03.840Z,5.00
2023-07-30T23:02:30.412Z,4.37
2023-07-30T23:04:56.981Z,4.07
2023-07-30T23:07:23.504Z,4.90
2023-07-30T23:09:50.042Z,3.95
2023-07-30T23:12:16.684Z,4.47
2023-07-30T23:14:43.230Z,4.60
2023-07-30T23:17:09.799Z,5.15
2023-07-30T23:19:36.350Z,4.60
2023-07-30T23:22:04.903Z,4.30
2023-07-30T23:24:32.820Z,4.75
2023-07-30T23:26:59.344Z,4.40
2023-07-30T23:29:25.834Z,3.55
2023-07-30T23:31:53.643Z,4.60
2023-07-30T23:34:20.292Z,4.35
2023-07-30T23:36:46.781Z,4.80
2023-07-30T23:39:13.259Z,4.03
2023-07-30T23:41:39.771Z,3.83
2023-07-30T23:44:06.248Z,3.80
2023-07-30T23:46:32.753Z,3.83
2023-07-30T23:48:59.234Z,3.60
2023-07-30T23:51:25.808Z,3.77
2023-07-30T23:53:54.046Z,3.72
2023-07-30T23:56:20.637Z,4.30
2023-07-30T23:58:47.184Z,3.85
